Latest Weather Observations for Cerberus

IDV60801

Issued at 8:32 am EDT Friday 9 December 2016 (issued every 30 minutes, with the page automatically refreshed every 10 minutes)

About weather observations | Map of weather stations | Latest weather observations for VIC | Other Formats
Station Details ID: 086361 Name: CERBERUS Lat: -38.36 Lon: 145.18 Height: 12.69 m
Data from the previous 72 hours. | See also: Recent months at Cerberus
Date/Time
EDT
Temp
°C
App
Temp
°C
Dew
Point
°C
Rel
Hum
%
Delta-T
°C
Wind Press
QNH
hPa
Press
MSL
hPa
Rain since
9am
mm
Dir  Spd
km/h
Gust
km/h
Spd
kts
Gust
kts
09/08:30am 12.4 7.2 5.3 62 3.3 WSW 22 35 12 19 1014.2 1014.1 7.4
09/08:00am 12.1 6.7 6.2 67 2.8 SW 24 39 13 21 1013.6 1013.5 7.4
09/07:41am 12.7 6.4 5.6 62 3.3 SW 28 46 15 25 1013.0 1013.0 7.4
09/07:30am 12.6 7.0 5.5 62 3.3 SW 24 43 13 23 1012.8 1012.8 7.4
09/07:00am 10.9 6.4 6.1 72 2.2 WSW 19 28 10 15 1012.1 1012.1 7.4
09/06:30am 10.1 4.2 5.7 74 2.0 WSW 26 41 14 22 1011.6 1011.6 7.4
09/06:13am 11.5 5.1 5.4 66 2.8 WSW 28 52 15 28 1011.2 1011.2 7.2
09/06:00am 11.0 6.0 4.7 65 2.9 WSW 20 39 11 21 1010.9 1010.9 7.2
09/05:30am 10.8 6.6 5.8 71 2.3 WSW 17 28 9 15 1010.2 1010.2 7.2
09/05:09am 11.8 5.1 5.7 66 2.8 SW 30 56 16 30 1009.9 1009.9 7.2
09/05:00am 12.1 6.5 5.5 64 3.1 WSW 24 39 13 21 1009.6 1009.6 7.2
09/04:30am 11.9 6.1 4.2 59 3.5 SW 24 39 13 21 1009.2 1009.2 7.2
09/04:20am 11.3 5.0 5.6 68 2.6 WSW 28 50 15 27 1009.1 1009.1 7.2
09/04:00am 11.1 5.1 5.4 68 2.6 SW 26 41 14 22 1008.8 1008.8 7.0
09/03:42am 11.6 5.3 5.5 66 2.8 SW 28 54 15 29 1008.8 1008.8 7.0
09/03:30am 11.4 5.7 5.1 65 2.9 WSW 24 39 13 21 1008.5 1008.5 7.0
09/03:00am 11.6 5.5 4.8 63 3.1 WSW 26 43 14 23 1008.1 1008.1 7.0
09/02:30am 11.4 6.7 5.1 65 2.9 WSW 19 28 10 15 1008.0 1008.0 7.0
09/02:04am 12.0 5.6 5.2 63 3.1 WSW 28 50 15 27 1007.8 1007.8 7.0
09/02:00am 12.3 6.8 5.9 65 3.0 WSW 24 50 13 27 1007.8 1007.8 7.0
09/01:30am 12.1 7.2 6.8 70 2.5 WSW 22 41 12 22 1007.7 1007.7 7.0
09/01:00am 12.2 6.6 7.3 72 2.4 WSW 26 46 14 25 1007.4 1007.4 7.0
09/12:30am 11.5 7.4 7.8 78 1.8 WSW 19 32 10 17 1007.3 1007.3 7.0
09/12:00am 12.3 8.3 8.2 76 2.0 W 19 32 10 17 1007.2 1007.2 7.0
 
Date/Time
EDT
Temp
°C
App
Temp
°C
Dew
Point
°C
Rel
Hum
%
Delta-T
°C
Wind Press
QNH
hPa
Press
MSL
hPa
Rain since
9am
mm
Dir  Spd
km/h
Gust
km/h
Spd
kts
Gust
kts
08/11:30pm 12.7 8.7 8.2 74 2.2 WSW 19 30 10 16 1006.8 1006.8 6.8
08/11:00pm 12.6 9.3 8.1 74 2.2 WSW 15 28 8 15 1006.6 1006.6 6.8
08/10:30pm 13.1 8.3 7.5 69 2.7 WSW 22 33 12 18 1006.1 1006.1 6.8
08/10:00pm 13.1 7.7 7.8 70 2.6 WSW 26 41 14 22 1005.5 1005.5 6.8
08/09:30pm 12.9 8.6 9.4 79 1.8 WSW 22 32 12 17 1004.9 1004.9 6.8
08/09:00pm 13.1 8.2 9.9 81 1.7 WSW 26 37 14 20 1004.2 1004.2 6.8
08/08:30pm 12.9 9.8 10.3 84 1.3 WSW 17 30 9 16 1003.5 1003.5 6.8
08/08:00pm 13.5 9.1 10.3 81 1.7 WSW 24 44 13 24 1002.6 1002.6 6.6
08/07:30pm 13.1 8.8 10.6 85 1.3 WSW 24 37 13 20 1002.1 1002.1 6.4
08/07:00pm 14.7 11.3 11.3 80 1.8 WSW 20 37 11 20 1001.1 1001.1 5.0
08/06:30pm 17.4 11.5 9.1 58 4.3 W 30 48 16 26 999.9 999.9 4.8
08/06:25pm 17.9 11.9 8.5 54 4.8 W 30 48 16 26 999.5 999.5 4.8
08/06:00pm 18.8 14.1 9.3 54 5.0 W 24 46 13 25 999.1 999.1 4.8
08/05:30pm 19.3 15.4 9.5 53 5.2 W 20 32 11 17 998.5 998.5 4.8
08/05:00pm 19.4 14.0 7.8 47 6.0 W 26 44 14 24 998.1 998.1 4.8
08/04:35pm 19.8 13.9 7.5 45 6.3 W 28 48 15 26 997.8 997.8 4.8
08/04:30pm 19.4 13.6 7.8 47 5.9 W 28 46 15 25 997.8 997.8 4.8
08/04:00pm 18.9 13.3 8.8 52 5.3 W 28 39 15 21 997.8 997.8 4.8
08/03:30pm 19.5 13.6 7.6 46 6.1 W 28 46 15 25 997.4 997.4 4.8
08/03:00pm 21.3 14.9 8.6 44 6.7 W 32 52 17 28 997.1 997.1 4.8
08/02:30pm 21.1 14.2 7.3 41 7.1 W 33 61 18 33 996.7 996.7 4.8
08/02:07pm 21.5 15.4 8.4 43 6.9 WNW 30 57 16 31 996.5 996.5 4.8
08/02:00pm 20.5 14.4 8.2 45 6.4 W 30 48 16 26 996.4 996.4 4.8
08/01:30pm 20.7 13.5 9.0 47 6.2 WNW 37 61 20 33 996.2 996.2 4.8
08/01:00pm 18.9 13.8 10.5 58 4.6 WNW 28 48 15 26 996.5 996.5 4.8
08/12:57pm 18.7 13.4 9.8 56 4.7 WNW 28 48 15 26 996.6 996.6 4.8
08/12:30pm 17.3 13.7 10.7 65 3.5 WNW 20 33 11 18 996.9 996.9 4.8
08/12:00pm 15.6 12.1 11.0 74 2.5 WNW 20 35 11 19 996.9 996.9 4.8
08/11:30am 15.9 11.9 11.7 76 2.3 WNW 24 43 13 23 996.7 996.7 4.8
08/11:00am 15.1 11.7 12.4 84 1.5 NW 22 39 12 21 996.6 996.6 4.8
08/10:39am 16.6 12.5 12.6 77 2.2 NW 26 65 14 35 996.5 996.5 3.8
08/10:30am 18.2 14.9 14.9 81 1.9 NNW 26 52 14 28 995.3 995.3 3.2
08/10:00am 17.6 15.4 14.9 84 1.6 N 20 35 11 19 995.0 995.0 3.2
08/09:30am 17.0 14.9 14.8 87 1.3 N 19 33 10 18 996.0 996.0 3.0
08/09:00am 16.6 14.7 14.2 86 1.4 N 17 32 9 17 996.5 996.5 10.8
08/08:30am 16.4 14.9 14.1 86 1.3 N 15 28 8 15 996.5 996.5 8.6
08/08:00am 16.4 14.7 13.5 83 1.6 N 15 28 8 15 997.3 997.3 7.2
08/07:30am 16.9 15.1 13.2 79 2.1 N 15 28 8 15 997.5 997.5 4.6
08/07:00am 17.3 15.3 12.8 75 2.5 N 15 32 8 17 998.3 998.3 3.2
08/06:30am 18.0 15.6 12.7 71 3.0 NNW 17 39 9 21 999.2 999.2 1.8
08/06:00am 15.3 14.6 12.1 81 1.8 NNW 7 11 4 6 998.4 998.4 0.8
08/05:30am 14.5 13.6 10.7 78 2.0 N 6 9 3 5 998.2 998.2 0.4
08/05:00am 15.4 14.5 10.6 73 2.6 NNE 6 7 3 4 997.6 997.6 0.0
08/04:30am 15.8 14.7 10.8 72 2.7 NNE 7 13 4 7 997.6 997.6 0.0
08/04:00am 16.1 14.7 10.8 71 2.8 NNE 9 17 5 9 998.0 998.0 0.0
08/03:30am 16.2 14.6 11.4 73 2.6 NE 11 20 6 11 998.5 998.5 0.0
08/03:00am 16.0 14.2 10.7 71 2.8 NNE 11 19 6 10 999.5 999.5 0.0
08/02:30am 15.8 13.2 10.6 71 2.8 NE 15 24 8 13 999.9 999.9 0.0
08/02:00am 15.6 12.9 10.4 71 2.8 NNE 15 28 8 15 1001.3 1001.3 0.0
08/01:30am 15.8 13.5 10.6 71 2.8 NE 13 26 7 14 1002.1 1002.1 0.0
08/01:00am 15.8 13.5 10.6 71 2.8 NE 13 22 7 12 1002.9 1002.9 0.0
08/12:30am 16.1 13.8 10.4 69 3.0 NE 13 24 7 13 1003.8 1003.8 0.0
08/12:00am 16.6 13.9 10.5 67 3.3 NE 15 30 8 16 1004.7 1004.7 0.0
 
Date/Time
EDT
Temp
°C
App
Temp
°C
Dew
Point
°C
Rel
Hum
%
Delta-T
°C
Wind Press
QNH
hPa
Press
MSL
hPa
Rain since
9am
mm
Dir  Spd
km/h
Gust
km/h
Spd
kts
Gust
kts
07/11:30pm 17.0 14.4 10.6 66 3.4 NE 15 26 8 14 1005.2 1005.2 0.0
07/11:00pm 17.5 14.7 10.1 62 3.9 NE 15 26 8 14 1005.4 1005.4 0.0
07/10:30pm 17.4 16.3 10.5 64 3.7 NE 7 17 4 9 1006.0 1006.0 0.0
07/10:00pm 16.0 15.4 11.6 75 2.4 E 6 9 3 5 1006.8 1006.8 0.0
07/09:30pm 14.9 14.9 11.1 78 2.0 SE 2 6 1 3 1007.1 1007.1 0.0
07/09:00pm 16.8 17.3 11.5 71 2.9 CALM 0 2 0 1 1007.6 1007.6 0.0
07/08:30pm 18.2 17.9 11.5 65 3.7 SE 4 7 2 4 1007.8 1007.8 0.0
07/08:00pm 19.0 17.7 11.3 61 4.2 ESE 9 17 5 9 1008.1 1008.1 0.0
07/07:30pm 19.3 17.0 10.6 57 4.7 ESE 13 20 7 11 1008.3 1008.3 0.0
07/07:00pm 19.8 17.7 11.0 57 4.8 SE 13 20 7 11 1008.7 1008.7 0.0
07/06:30pm 20.1 17.4 9.1 49 5.8 SSE 13 19 7 10 1009.0 1009.0 0.0
07/06:00pm 21.0 18.3 7.3 41 7.0 SE 11 17 6 9 1009.4 1009.4 0.0
07/05:30pm 21.6 19.3 7.4 40 7.3 SE 9 17 5 9 1009.7 1009.7 0.0
07/05:00pm 21.4 18.5 8.0 42 7.0 ESE 13 19 7 10 1010.4 1010.4 0.0
07/04:30pm 21.3 18.4 8.2 43 6.9 ESE 13 20 7 11 1010.9 1010.9 0.0
07/04:00pm 20.5 17.8 10.3 52 5.5 SW 15 22 8 12 1011.5 1011.5 0.0
07/03:30pm 20.6 17.7 9.5 49 5.9 SSW 15 22 8 12 1012.0 1012.0 0.0
07/03:00pm 20.4 17.5 8.1 45 6.4 SSW 13 19 7 10 1012.6 1012.6 0.0
07/02:30pm 20.2 16.8 9.2 49 5.8 SW 17 24 9 13 1012.8 1012.8 0.0
07/02:00pm 22.0 18.3 4.6 32 8.5 NE 13 22 7 12 1012.9 1012.9 0.0
07/01:30pm 21.0 17.1 3.2 31 8.4 NNE 13 20 7 11 1013.3 1013.3 0.0
07/01:00pm 20.9 17.5 4.0 33 8.1 E 11 19 6 10 1014.0 1013.9 0.0
07/12:30pm 20.5 17.9 4.1 34 7.9 NE 7 19 4 10 1014.4 1014.3 0.0
07/12:00pm 20.0 17.5 3.7 34 7.7 ESE 6 13 3 7 1014.7 1014.6 0.0
07/11:30am 19.1 16.3 2.9 34 7.5 ESE 7 13 4 7 1014.9 1014.8 0.0
07/11:00am 18.6 15.7 2.4 34 7.4 NNE 7 11 4 6 1015.3 1015.2 0.0
07/10:30am 17.8 14.6 2.9 37 6.9 ENE 9 17 5 9 1015.4 1015.3 0.0
07/10:00am 16.8 14.5 7.4 54 4.7 NNE 9 15 5 8 1015.4 1015.3 0.0
07/09:30am 15.8 13.6 9.2 65 3.4 ENE 11 17 6 9 1015.5 1015.4 0.0
07/09:00am 16.2 14.9 10.1 67 3.2 NNE 7 13 4 7 1015.5 1015.4 0.0
07/08:30am 15.1 13.7 9.5 69 2.9 NNE 7 13 4 7 1015.6 1015.5 0.0
07/08:00am 14.0 12.9 10.0 77 2.1 NNE 6 9 3 5 1015.8 1015.7 0.0
07/07:30am 12.1 11.4 10.0 87 1.1 ENE 4 7 2 4 1015.5 1015.4 0.0
07/07:00am 10.3 10.1 9.1 92 0.6 CALM 0 0 0 0 1015.7 1015.6 0.0
07/06:30am 7.0 5.3 5.8 92 0.5 N 4 6 2 3 1015.5 1015.4 0.0
07/06:00am 6.6 4.8 5.4 92 0.5 N 4 6 2 3 1015.3 1015.2 0.0
07/05:30am 6.4 5.3 5.0 91 0.6 CALM 0 0 0 0 1015.0 1014.9 0.0
07/05:00am 6.8 5.8 5.4 91 0.6 CALM 0 0 0 0 1014.7 1014.6 0.0
07/04:30am 6.7 5.6 5.3 91 0.6 CALM 0 2 0 1 1014.4 1014.3 0.0
07/04:00am 6.5 5.0 5.1 91 0.6 N 2 2 1 1 1014.3 1014.2 0.0
07/03:30am 7.0 6.0 5.5 90 0.7 CALM 0 0 0 0 1014.4 1014.3 0.0
07/03:00am 7.1 6.1 5.6 90 0.7 CALM 0 0 0 0 1014.7 1014.6 0.0
07/02:30am 7.2 6.2 5.5 89 0.8 CALM 0 0 0 0 1015.0 1014.9 0.0
07/02:00am 7.0 5.9 5.2 88 0.8 CALM 0 0 0 0 1015.3 1015.2 0.0
07/01:30am 7.8 6.9 5.9 88 0.9 CALM 0 0 0 0 1015.5 1015.4 0.0
07/01:00am 7.7 6.0 5.7 87 0.9 N 4 6 2 3 1015.5 1015.4 0.0
07/12:30am 8.7 7.5 6.5 86 1.0 N 2 2 1 1 1015.8 1015.7 0.0
07/12:00am 8.9 7.7 6.5 85 1.1 N 2 4 1 2 1015.9 1015.8 0.0
 
Date/Time
EDT
Temp
°C
App
Temp
°C
Dew
Point
°C
Rel
Hum
%
Delta-T
°C
Wind Press
QNH
hPa
Press
MSL
hPa
Rain since
9am
mm
Dir  Spd
km/h
Gust
km/h
Spd
kts
Gust
kts
06/11:30pm 9.6 7.7 6.9 83 1.3 SSW 6 7 3 4 1015.9 1015.8 0.0
06/11:00pm 9.3 7.6 6.0 80 1.5 SSW 4 6 2 3 1015.9 1015.8 0.0
06/10:30pm 11.7 10.0 7.4 75 2.1 SSW 6 7 3 4 1016.0 1015.9 0.0
06/10:00pm 12.6 10.7 7.5 71 2.5 SSW 7 11 4 6 1015.9 1015.8 0.0
06/09:30pm 12.9 11.0 7.4 69 2.7 SSW 7 11 4 6 1015.5 1015.4 0.0
06/09:00pm 13.2 11.4 7.2 67 2.9 SSW 6 9 3 5 1015.3 1015.2 0.0
06/08:30pm 13.8 11.5 7.6 66 3.0 SSW 9 15 5 8 1015.3 1015.2 0.0
06/08:00pm 14.8 11.8 7.8 63 3.5 SSW 13 20 7 11 1014.9 1014.8 0.0
06/07:30pm 15.5 12.6 8.0 61 3.8 SSW 13 19 7 10 1015.1 1015.0 0.0
06/07:00pm 15.8 12.4 7.8 59 4.0 SSW 15 22 8 12 1015.0 1014.9 0.0
06/06:30pm 16.5 13.0 8.7 60 4.0 SSW 17 24 9 13 1014.6 1014.5 0.0
06/06:00pm 16.7 12.7 8.4 58 4.2 SSW 19 30 10 16 1014.3 1014.2 0.0
06/05:30pm 16.7 12.3 7.4 54 4.6 SSW 20 33 11 18 1013.9 1013.8 0.0
06/05:00pm 17.4 13.3 7.7 53 4.9 SSW 19 28 10 15 1013.9 1013.8 0.0
06/04:30pm 17.1 12.8 6.9 51 5.1 SSW 19 28 10 15 1013.9 1013.8 0.0
06/04:00pm 18.1 14.8 8.1 52 5.1 SSW 15 24 8 13 1013.8 1013.7 0.0
06/03:30pm 17.1 12.2 6.9 51 5.1 SSW 22 35 12 19 1014.0 1013.9 0.0
06/03:00pm 17.6 12.9 6.2 47 5.6 SSW 20 30 11 16 1014.0 1013.9 0.0
06/02:30pm 18.2 13.1 5.8 44 6.1 SSW 22 30 12 16 1013.9 1013.8 0.0
06/02:00pm 18.1 13.6 6.3 46 5.8 SSW 19 30 10 16 1013.9 1013.8 0.0
06/01:30pm 17.8 14.0 7.5 51 5.2 SSW 17 26 9 14 1014.0 1013.9 0.0
06/01:00pm 16.8 12.9 6.9 52 4.9 SSW 17 24 9 13 1014.1 1014.0 0.0
06/12:30pm 17.0 13.7 7.9 55 4.6 SSW 15 22 8 12 1014.5 1014.4 0.0
06/12:00pm 16.4 13.2 8.4 59 4.1 SSW 15 22 8 12 1014.3 1014.2 0.0
06/11:30am 17.0 14.9 9.9 63 3.7 SSW 11 19 6 10 1014.0 1013.9 0.0
06/11:00am 15.7 14.1 8.7 63 3.6 S 7 11 4 6 1013.9 1013.8 0.0
06/10:30am 15.4 13.9 8.4 63 3.5 S 6 13 3 7 1013.9 1013.8 0.0
06/10:00am 15.1 13.7 9.5 69 2.9 SSW 7 15 4 8 1014.5 1014.4 0.0
06/09:30am 15.0 14.5 10.8 76 2.2 SW 4 9 2 5 1014.8 1014.7 0.0
06/09:00am 13.8 13.6 10.4 80 1.8 SW 2 4 1 2 1014.3 1014.2 0.0

Other Formats:

Comma delimited format used in spreadsheet applications
http://www.bom.gov.au/fwo/IDV60801/IDV60801.94898.axf

JavaScript Object Notation format (JSON) in row-major order
http://www.bom.gov.au/fwo/IDV60801/IDV60801.94898.json